sensor_id;sensor_type;location;lat;lon;timestamp;pressure;altitude;pressure_sealevel;temperature;humidity
35716;BME280;21840;44.920;8.616;2023-04-07T00:01:07;100470.50;;;14.23;40.57
35716;BME280;21840;44.920;8.616;2023-04-07T00:03:33;100464.72;;;14.28;40.44
35716;BME280;21840;44.920;8.616;2023-04-07T00:05:58;100458.97;;;14.32;40.51
35716;BME280;21840;44.920;8.616;2023-04-07T00:08:23;100461.00;;;14.38;40.80
35716;BME280;21840;44.920;8.616;2023-04-07T00:10:49;100465.28;;;14.39;40.61
35716;BME280;21840;44.920;8.616;2023-04-07T00:13:14;100467.78;;;13.89;42.00
35716;BME280;21840;44.920;8.616;2023-04-07T00:15:40;100458.59;;;13.75;42.30
35716;BME280;21840;44.920;8.616;2023-04-07T00:18:05;100457.34;;;13.87;42.13
35716;BME280;21840;44.920;8.616;2023-04-07T00:20:30;100462.16;;;13.66;42.79
35716;BME280;21840;44.920;8.616;2023-04-07T00:22:56;100459.63;;;13.10;44.11
35716;BME280;21840;44.920;8.616;2023-04-07T00:25:21;100455.16;;;13.56;42.82
35716;BME280;21840;44.920;8.616;2023-04-07T00:27:46;100455.03;;;13.12;43.44
35716;BME280;21840;44.920;8.616;2023-04-07T00:30:12;100455.66;;;13.42;42.80
35716;BME280;21840;44.920;8.616;2023-04-07T00:32:37;100454.38;;;13.10;43.52
35716;BME280;21840;44.920;8.616;2023-04-07T00:35:03;100450.13;;;13.17;43.41
35716;BME280;21840;44.920;8.616;2023-04-07T00:37:28;100452.91;;;12.98;43.64
35716;BME280;21840;44.920;8.616;2023-04-07T00:39:54;100448.28;;;13.00;43.94
35716;BME280;21840;44.920;8.616;2023-04-07T00:42:21;100445.00;;;12.98;43.35
35716;BME280;21840;44.920;8.616;2023-04-07T00:44:46;100447.16;;;13.03;43.76
35716;BME280;21840;44.920;8.616;2023-04-07T00:47:11;100456.38;;;13.16;42.97
35716;BME280;21840;44.920;8.616;2023-04-07T00:49:37;100459.34;;;13.13;41.87
35716;BME280;21840;44.920;8.616;2023-04-07T00:52:02;100450.88;;;12.64;43.04
35716;BME280;21840;44.920;8.616;2023-04-07T00:54:29;100447.81;;;12.32;43.88
35716;BME280;21840;44.920;8.616;2023-04-07T00:56:54;100449.75;;;12.29;43.41
35716;BME280;21840;44.920;8.616;2023-04-07T00:59:20;100446.13;;;12.68;43.22
35716;BME280;21840;44.920;8.616;2023-04-07T01:01:48;100445.81;;;12.81;42.57
35716;BME280;21840;44.920;8.616;2023-04-07T01:04:21;100444.16;;;12.42;43.05
35716;BME280;21840;44.920;8.616;2023-04-07T01:06:53;100440.09;;;12.48;43.63
35716;BME280;21840;44.920;8.616;2023-04-07T01:09:29;100441.66;;;12.50;43.50
35716;BME280;21840;44.920;8.616;2023-04-07T01:12:04;100446.06;;;12.13;44.66
35716;BME280;21840;44.920;8.616;2023-04-07T01:14:33;100437.28;;;12.32;44.75
35716;BME280;21840;44.920;8.616;2023-04-07T01:17:15;100448.34;;;12.35;44.45
35716;BME280;21840;44.920;8.616;2023-04-07T01:19:44;100442.31;;;12.15;44.84
35716;BME280;21840;44.920;8.616;2023-04-07T01:22:13;100445.56;;;12.37;44.89
35716;BME280;21840;44.920;8.616;2023-04-07T01:27:28;100440.19;;;12.66;44.11
35716;BME280;21840;44.920;8.616;2023-04-07T01:29:58;100442.63;;;12.02;46.02
35716;BME280;21840;44.920;8.616;2023-04-07T01:32:25;100447.56;;;12.15;45.43
35716;BME280;21840;44.920;8.616;2023-04-07T01:34:51;100449.69;;;12.12;44.96
35716;BME280;21840;44.920;8.616;2023-04-07T01:37:18;100449.44;;;11.76;45.08
35716;BME280;21840;44.920;8.616;2023-04-07T01:39:44;100456.94;;;11.71;45.10
35716;BME280;21840;44.920;8.616;2023-04-07T01:42:10;100448.75;;;11.54;45.46
35716;BME280;21840;44.920;8.616;2023-04-07T01:44:36;100450.81;;;11.60;45.87
35716;BME280;21840;44.920;8.616;2023-04-07T01:47:02;100451.78;;;11.40;45.97
35716;BME280;21840;44.920;8.616;2023-04-07T01:49:29;100444.31;;;11.55;45.53
35716;BME280;21840;44.920;8.616;2023-04-07T01:51:54;100448.88;;;11.72;45.53
35716;BME280;21840;44.920;8.616;2023-04-07T01:54:21;100449.16;;;11.59;45.68
35716;BME280;21840;44.920;8.616;2023-04-07T01:56:48;100453.31;;;11.42;45.92
35716;BME280;21840;44.920;8.616;2023-04-07T01:59:14;100442.78;;;11.72;45.53
35716;BME280;21840;44.920;8.616;2023-04-07T02:01:40;100452.38;;;11.43;46.20
35716;BME280;21840;44.920;8.616;2023-04-07T02:04:18;100439.47;;;11.60;46.37
35716;BME280;21840;44.920;8.616;2023-04-07T02:06:46;100437.13;;;11.76;46.17
35716;BME280;21840;44.920;8.616;2023-04-07T02:09:15;100431.84;;;11.76;46.05
35716;BME280;21840;44.920;8.616;2023-04-07T02:11:44;100435.31;;;11.96;45.91
35716;BME280;21840;44.920;8.616;2023-04-07T02:14:10;100441.22;;;12.08;45.23
35716;BME280;21840;44.920;8.616;2023-04-07T02:16:51;100440.38;;;12.17;45.48
35716;BME280;21840;44.920;8.616;2023-04-07T02:19:17;100444.47;;;12.29;45.53
35716;BME280;21840;44.920;8.616;2023-04-07T02:21:43;100451.91;;;11.68;47.18
35716;BME280;21840;44.920;8.616;2023-04-07T02:24:10;100450.13;;;11.87;46.37
35716;BME280;21840;44.920;8.616;2023-04-07T02:26:36;100449.69;;;11.73;46.25
35716;BME280;21840;44.920;8.616;2023-04-07T02:29:02;100449.97;;;11.99;44.75
35716;BME280;21840;44.920;8.616;2023-04-07T02:31:27;100444.03;;;11.09;46.78
35716;BME280;21840;44.920;8.616;2023-04-07T02:33:52;100435.59;;;11.35;46.46
35716;BME280;21840;44.920;8.616;2023-04-07T02:36:18;100422.16;;;11.67;45.66
35716;BME280;21840;44.920;8.616;2023-04-07T02:38:43;100434.06;;;11.32;46.38
35716;BME280;21840;44.920;8.616;2023-04-07T02:41:11;100430.75;;;11.20;46.69
35716;BME280;21840;44.920;8.616;2023-04-07T02:43:36;100426.47;;;11.49;46.35
35716;BME280;21840;44.920;8.616;2023-04-07T02:46:02;100425.78;;;11.27;46.63
35716;BME280;21840;44.920;8.616;2023-04-07T02:48:28;100418.44;;;11.50;46.35
35716;BME280;21840;44.920;8.616;2023-04-07T02:50:54;100408.63;;;11.42;46.58
35716;BME280;21840;44.920;8.616;2023-04-07T02:53:19;100415.81;;;11.40;46.81
35716;BME280;21840;44.920;8.616;2023-04-07T02:55:45;100415.81;;;11.21;47.43
35716;BME280;21840;44.920;8.616;2023-04-07T02:58:10;100418.88;;;11.26;47.20
35716;BME280;21840;44.920;8.616;2023-04-07T03:00:40;100423.28;;;11.06;47.58
35716;BME280;21840;44.920;8.616;2023-04-07T03:03:09;100428.19;;;10.80;47.94
35716;BME280;21840;44.920;8.616;2023-04-07T03:05:37;100419.38;;;10.91;47.50
35716;BME280;21840;44.920;8.616;2023-04-07T03:08:03;100415.75;;;10.82;47.23
35716;BME280;21840;44.920;8.616;2023-04-07T03:10:31;100412.16;;;10.83;47.22
35716;BME280;21840;44.920;8.616;2023-04-07T03:12:57;100398.16;;;10.63;47.06
35716;BME280;21840;44.920;8.616;2023-04-07T03:15:22;100402.38;;;10.45;47.76
35716;BME280;21840;44.920;8.616;2023-04-07T03:17:49;100403.22;;;10.45;47.84
35716;BME280;21840;44.920;8.616;2023-04-07T03:20:15;100398.94;;;10.23;48.30
35716;BME280;21840;44.920;8.616;2023-04-07T03:22:41;100395.47;;;10.44;47.70
35716;BME280;21840;44.920;8.616;2023-04-07T03:25:13;100388.81;;;10.40;47.71
35716;BME280;21840;44.920;8.616;2023-04-07T03:27:39;100389.03;;;10.27;48.18
35716;BME280;21840;44.920;8.616;2023-04-07T03:30:07;100382.59;;;10.41;47.78
35716;BME280;21840;44.920;8.616;2023-04-07T03:32:33;100384.28;;;10.42;47.87
35716;BME280;21840;44.920;8.616;2023-04-07T03:34:59;100383.69;;;10.88;46.85
35716;BME280;21840;44.920;8.616;2023-04-07T03:37:24;100389.19;;;10.75;46.36
35716;BME280;21840;44.920;8.616;2023-04-07T03:39:52;100381.97;;;10.58;46.64
35716;BME280;21840;44.920;8.616;2023-04-07T03:42:24;100382.00;;;10.68;46.44
35716;BME280;21840;44.920;8.616;2023-04-07T03:44:55;100374.72;;;10.41;47.03
35716;BME280;21840;44.920;8.616;2023-04-07T03:47:20;100376.50;;;10.30;47.31
35716;BME280;21840;44.920;8.616;2023-04-07T03:49:52;100379.63;;;9.93;48.44
35716;BME280;21840;44.920;8.616;2023-04-07T03:52:20;100384.66;;;10.06;47.97
35716;BME280;21840;44.920;8.616;2023-04-07T03:54:49;100385.97;;;9.91;48.08
35716;BME280;21840;44.920;8.616;2023-04-07T03:57:20;100384.75;;;9.74;48.78
35716;BME280;21840;44.920;8.616;2023-04-07T03:59:47;100386.16;;;9.99;48.62
35716;BME280;21840;44.920;8.616;2023-04-07T04:02:16;100390.66;;;9.66;49.10
35716;BME280;21840;44.920;8.616;2023-04-07T04:04:42;100379.28;;;9.56;48.94
35716;BME280;21840;44.920;8.616;2023-04-07T04:07:09;100383.69;;;9.77;48.64
35716;BME280;21840;44.920;8.616;2023-04-07T04:09:41;100382.31;;;9.40;49.02
35716;BME280;21840;44.920;8.616;2023-04-07T04:12:07;100384.28;;;9.90;47.75
35716;BME280;21840;44.920;8.616;2023-04-07T04:14:38;100382.69;;;9.36;48.76
35716;BME280;21840;44.920;8.616;2023-04-07T04:17:06;100390.13;;;9.52;48.70
35716;BME280;21840;44.920;8.616;2023-04-07T04:19:36;100381.63;;;9.80;47.94
35716;BME280;21840;44.920;8.616;2023-04-07T04:22:10;100379.50;;;9.53;48.30
35716;BME280;21840;44.920;8.616;2023-04-07T04:24:44;100386.47;;;9.43;48.95
35716;BME280;21840;44.920;8.616;2023-04-07T04:27:10;100379.81;;;9.81;47.64
35716;BME280;21840;44.920;8.616;2023-04-07T04:29:35;100369.63;;;9.57;47.95
35716;BME280;21840;44.920;8.616;2023-04-07T04:32:03;100367.41;;;9.41;48.57
35716;BME280;21840;44.920;8.616;2023-04-07T04:34:29;100369.91;;;9.63;48.03
35716;BME280;21840;44.920;8.616;2023-04-07T04:36:55;100361.59;;;9.79;47.35
35716;BME280;21840;44.920;8.616;2023-04-07T04:39:20;100365.06;;;9.17;48.51
35716;BME280;21840;44.920;8.616;2023-04-07T04:41:47;100369.47;;;9.58;47.87
35716;BME280;21840;44.920;8.616;2023-04-07T04:44:12;100368.91;;;9.34;48.43
35716;BME280;21840;44.920;8.616;2023-04-07T04:46:40;100375.25;;;9.31;47.96
35716;BME280;21840;44.920;8.616;2023-04-07T04:49:06;100377.19;;;9.18;48.64
35716;BME280;21840;44.920;8.616;2023-04-07T04:51:33;100381.50;;;9.40;47.74
35716;BME280;21840;44.920;8.616;2023-04-07T04:54:04;100388.47;;;9.29;47.86
35716;BME280;21840;44.920;8.616;2023-04-07T04:56:31;100390.31;;;9.39;47.79
35716;BME280;21840;44.920;8.616;2023-04-07T04:58:57;100394.53;;;9.30;47.80
35716;BME280;21840;44.920;8.616;2023-04-07T05:01:40;100385.75;;;9.41;47.31
35716;BME280;21840;44.920;8.616;2023-04-07T05:04:08;100388.34;;;9.52;47.00
35716;BME280;21840;44.920;8.616;2023-04-07T05:06:34;100388.09;;;9.55;47.08
35716;BME280;21840;44.920;8.616;2023-04-07T05:09:05;100402.97;;;9.76;46.78
35716;BME280;21840;44.920;8.616;2023-04-07T05:11:39;100405.91;;;9.40;47.46
35716;BME280;21840;44.920;8.616;2023-04-07T05:14:05;100396.91;;;9.54;47.29
35716;BME280;21840;44.920;8.616;2023-04-07T05:16:30;100395.22;;;9.53;47.29
35716;BME280;21840;44.920;8.616;2023-04-07T05:18:56;100398.91;;;9.62;47.08
35716;BME280;21840;44.920;8.616;2023-04-07T05:21:23;100391.28;;;9.59;46.96
35716;BME280;21840;44.920;8.616;2023-04-07T05:23:52;100394.13;;;9.98;46.21
35716;BME280;21840;44.920;8.616;2023-04-07T05:26:19;100389.16;;;9.94;46.09
35716;BME280;21840;44.920;8.616;2023-04-07T05:28:49;100397.03;;;9.94;46.45
35716;BME280;21840;44.920;8.616;2023-04-07T05:31:18;100397.53;;;10.09;46.27
35716;BME280;21840;44.920;8.616;2023-04-07T05:33:46;100389.81;;;10.18;45.85
35716;BME280;21840;44.920;8.616;2023-04-07T05:36:12;100393.44;;;10.26;45.61
35716;BME280;21840;44.920;8.616;2023-04-07T05:38:40;100394.13;;;10.49;45.34
35716;BME280;21840;44.920;8.616;2023-04-07T05:41:11;100386.66;;;10.54;45.21
35716;BME280;21840;44.920;8.616;2023-04-07T05:43:37;100384.16;;;10.22;45.77
35716;BME280;21840;44.920;8.616;2023-04-07T05:46:05;100391.66;;;10.57;45.72
35716;BME280;21840;44.920;8.616;2023-04-07T05:48:33;100388.00;;;10.39;46.25
35716;BME280;21840;44.920;8.616;2023-04-07T05:50:59;100379.19;;;10.50;46.27
35716;BME280;21840;44.920;8.616;2023-04-07T05:53:25;100387.22;;;10.48;46.26
35716;BME280;21840;44.920;8.616;2023-04-07T05:55:50;100401.41;;;10.36;46.76
35716;BME280;21840;44.920;8.616;2023-04-07T05:58:39;100394.63;;;10.43;47.22
35716;BME280;21840;44.920;8.616;2023-04-07T06:01:04;100388.94;;;10.07;48.36
35716;BME280;21840;44.920;8.616;2023-04-07T06:03:30;100391.84;;;10.35;47.51
35716;BME280;21840;44.920;8.616;2023-04-07T06:06:02;100384.28;;;10.11;47.83
35716;BME280;21840;44.920;8.616;2023-04-07T06:08:28;100387.63;;;9.92;48.84
35716;BME280;21840;44.920;8.616;2023-04-07T06:10:54;100382.97;;;10.26;48.08
35716;BME280;21840;44.920;8.616;2023-04-07T06:13:20;100390.19;;;10.34;47.47
35716;BME280;21840;44.920;8.616;2023-04-07T06:15:45;100390.25;;;10.63;47.27
35716;BME280;21840;44.920;8.616;2023-04-07T06:18:11;100386.13;;;10.70;47.42
35716;BME280;21840;44.920;8.616;2023-04-07T06:20:38;100385.09;;;11.02;46.55
35716;BME280;21840;44.920;8.616;2023-04-07T06:23:03;100393.78;;;11.02;46.26
35716;BME280;21840;44.920;8.616;2023-04-07T06:25:28;100387.41;;;10.86;46.80
35716;BME280;21840;44.920;8.616;2023-04-07T06:27:54;100390.91;;;11.15;46.23
35716;BME280;21840;44.920;8.616;2023-04-07T06:30:21;100389.25;;;11.24;46.06
35716;BME280;21840;44.920;8.616;2023-04-07T06:32:47;100392.78;;;11.81;45.16
35716;BME280;21840;44.920;8.616;2023-04-07T06:35:12;100396.38;;;11.90;45.08
35716;BME280;21840;44.920;8.616;2023-04-07T06:37:37;100391.91;;;12.10;44.37
35716;BME280;21840;44.920;8.616;2023-04-07T06:40:03;100396.69;;;12.24;44.51
35716;BME280;21840;44.920;8.616;2023-04-07T06:42:29;100389.25;;;12.47;44.56
35716;BME280;21840;44.920;8.616;2023-04-07T06:45:08;100384.13;;;12.18;45.00
35716;BME280;21840;44.920;8.616;2023-04-07T06:47:34;100392.50;;;12.32;45.01
35716;BME280;21840;44.920;8.616;2023-04-07T06:49:59;100394.94;;;12.43;45.11
35716;BME280;21840;44.920;8.616;2023-04-07T06:52:24;100393.94;;;12.54;45.02
35716;BME280;21840;44.920;8.616;2023-04-07T06:54:50;100388.63;;;12.36;45.28
35716;BME280;21840;44.920;8.616;2023-04-07T06:57:15;100387.00;;;12.98;45.04
35716;BME280;21840;44.920;8.616;2023-04-07T06:59:41;100390.03;;;13.21;44.44
35716;BME280;21840;44.920;8.616;2023-04-07T07:02:06;100395.41;;;13.29;44.03
35716;BME280;21840;44.920;8.616;2023-04-07T07:04:32;100392.59;;;13.49;43.21
35716;BME280;21840;44.920;8.616;2023-04-07T07:06:58;100391.81;;;13.56;43.42
35716;BME280;21840;44.920;8.616;2023-04-07T07:09:23;100399.47;;;13.68;43.91
35716;BME280;21840;44.920;8.616;2023-04-07T07:11:48;100397.22;;;13.73;44.15
35716;BME280;21840;44.920;8.616;2023-04-07T07:14:14;100401.16;;;13.95;43.73
35716;BME280;21840;44.920;8.616;2023-04-07T07:16:39;100397.31;;;13.89;43.61
35716;BME280;21840;44.920;8.616;2023-04-07T07:19:05;100393.09;;;13.96;43.74
35716;BME280;21840;44.920;8.616;2023-04-07T07:21:30;100390.94;;;14.00;43.65
35716;BME280;21840;44.920;8.616;2023-04-07T07:23:56;100388.97;;;14.28;43.38
35716;BME280;21840;44.920;8.616;2023-04-07T07:26:21;100390.16;;;14.42;42.97
35716;BME280;21840;44.920;8.616;2023-04-07T07:28:47;100387.97;;;14.29;43.35
35716;BME280;21840;44.920;8.616;2023-04-07T07:31:12;100388.22;;;14.52;42.79
35716;BME280;21840;44.920;8.616;2023-04-07T07:33:39;100388.44;;;14.59;42.77
35716;BME280;21840;44.920;8.616;2023-04-07T07:36:05;100381.06;;;14.87;42.43
35716;BME280;21840;44.920;8.616;2023-04-07T07:38:31;100385.22;;;14.89;42.34
35716;BME280;21840;44.920;8.616;2023-04-07T07:40:56;100379.59;;;14.84;42.67
35716;BME280;21840;44.920;8.616;2023-04-07T07:43:21;100382.28;;;15.17;41.94
35716;BME280;21840;44.920;8.616;2023-04-07T07:45:47;100374.38;;;15.25;41.96
35716;BME280;21840;44.920;8.616;2023-04-07T07:48:12;100382.13;;;15.19;41.93
35716;BME280;21840;44.920;8.616;2023-04-07T07:50:37;100371.38;;;15.28;42.23
35716;BME280;21840;44.920;8.616;2023-04-07T07:53:02;100368.56;;;15.71;41.68
35716;BME280;21840;44.920;8.616;2023-04-07T07:55:28;100367.41;;;15.65;41.79
35716;BME280;21840;44.920;8.616;2023-04-07T07:57:53;100367.69;;;15.87;41.39
35716;BME280;21840;44.920;8.616;2023-04-07T08:00:18;100377.66;;;15.77;41.71
35716;BME280;21840;44.920;8.616;2023-04-07T08:02:44;100375.69;;;15.70;42.11
35716;BME280;21840;44.920;8.616;2023-04-07T08:05:09;100371.03;;;15.56;42.11
35716;BME280;21840;44.920;8.616;2023-04-07T08:07:35;100371.22;;;16.27;41.02
35716;BME280;21840;44.920;8.616;2023-04-07T08:10:00;100368.41;;;16.59;40.48
35716;BME280;21840;44.920;8.616;2023-04-07T08:12:26;100368.63;;;16.50;40.09
35716;BME280;21840;44.920;8.616;2023-04-07T08:14:51;100366.78;;;16.58;40.16
35716;BME280;21840;44.920;8.616;2023-04-07T08:17:16;100362.88;;;16.77;39.91
35716;BME280;21840;44.920;8.616;2023-04-07T08:19:42;100363.47;;;16.56;39.93
35716;BME280;21840;44.920;8.616;2023-04-07T08:22:07;100362.72;;;17.02;39.32
35716;BME280;21840;44.920;8.616;2023-04-07T08:24:32;100366.75;;;16.98;39.14
35716;BME280;21840;44.920;8.616;2023-04-07T08:26:58;100357.91;;;17.06;39.14
35716;BME280;21840;44.920;8.616;2023-04-07T08:29:23;100361.41;;;17.21;39.15
35716;BME280;21840;44.920;8.616;2023-04-07T08:31:49;100359.06;;;17.64;38.52
35716;BME280;21840;44.920;8.616;2023-04-07T08:34:14;100361.91;;;17.62;38.36
35716;BME280;21840;44.920;8.616;2023-04-07T08:36:40;100358.06;;;18.24;37.50
35716;BME280;21840;44.920;8.616;2023-04-07T08:39:05;100369.22;;;18.49;37.00
35716;BME280;21840;44.920;8.616;2023-04-07T08:43:56;100352.03;;;18.67;36.78
35716;BME280;21840;44.920;8.616;2023-04-07T08:46:22;100358.00;;;19.05;36.13
35716;BME280;21840;44.920;8.616;2023-04-07T08:48:50;100353.81;;;19.17;35.87
35716;BME280;21840;44.920;8.616;2023-04-07T08:51:15;100352.81;;;18.97;36.31
35716;BME280;21840;44.920;8.616;2023-04-07T08:53:46;100343.09;;;19.32;35.86
35716;BME280;21840;44.920;8.616;2023-04-07T08:56:14;100338.44;;;19.41;35.82
35716;BME280;21840;44.920;8.616;2023-04-07T08:58:40;100333.88;;;19.35;35.89
35716;BME280;21840;44.920;8.616;2023-04-07T09:01:05;100334.78;;;19.42;35.70
35716;BME280;21840;44.920;8.616;2023-04-07T09:03:32;100336.03;;;19.74;35.27
35716;BME280;21840;44.920;8.616;2023-04-07T09:05:59;100322.31;;;20.12;34.54
35716;BME280;21840;44.920;8.616;2023-04-07T09:08:25;100318.09;;;20.38;34.13
35716;BME280;21840;44.920;8.616;2023-04-07T09:10:50;100323.97;;;20.20;34.50
35716;BME280;21840;44.920;8.616;2023-04-07T09:13:19;100330.03;;;20.00;34.63
35716;BME280;21840;44.920;8.616;2023-04-07T09:15:44;100322.53;;;20.24;34.32
35716;BME280;21840;44.920;8.616;2023-04-07T09:18:10;100325.91;;;20.46;34.02
35716;BME280;21840;44.920;8.616;2023-04-07T09:23:27;100315.97;;;20.81;33.90
35716;BME280;21840;44.920;8.616;2023-04-07T09:25:55;100301.75;;;20.61;33.83
35716;BME280;21840;44.920;8.616;2023-04-07T09:28:23;100307.75;;;20.76;33.57
35716;BME280;21840;44.920;8.616;2023-04-07T09:30:52;100312.28;;;20.82;33.46
35716;BME280;21840;44.920;8.616;2023-04-07T09:33:25;100313.72;;;20.92;33.50
35716;BME280;21840;44.920;8.616;2023-04-07T09:35:51;100317.41;;;20.90;33.38
35716;BME280;21840;44.920;8.616;2023-04-07T09:38:20;100322.56;;;21.12;32.99
35716;BME280;21840;44.920;8.616;2023-04-07T09:40:45;100312.72;;;20.99;32.93
35716;BME280;21840;44.920;8.616;2023-04-07T09:43:16;100315.31;;;20.66;32.97
35716;BME280;21840;44.920;8.616;2023-04-07T09:45:42;100315.31;;;20.66;32.97
35716;BME280;21840;44.920;8.616;2023-04-07T09:48:07;100312.06;;;20.90;32.36
35716;BME280;21840;44.920;8.616;2023-04-07T09:50:41;100307.56;;;21.18;31.88
35716;BME280;21840;44.920;8.616;2023-04-07T09:53:09;100309.84;;;21.27;31.78
35716;BME280;21840;44.920;8.616;2023-04-07T09:55:35;100308.41;;;21.18;31.46
35716;BME280;21840;44.920;8.616;2023-04-07T09:58:00;100301.41;;;21.44;31.34
35716;BME280;21840;44.920;8.616;2023-04-07T10:00:26;100308.41;;;21.45;31.08
35716;BME280;21840;44.920;8.616;2023-04-07T10:02:51;100296.44;;;21.67;30.62
35716;BME280;21840;44.920;8.616;2023-04-07T10:05:17;100303.19;;;21.76;30.38
35716;BME280;21840;44.920;8.616;2023-04-07T10:07:45;100305.75;;;21.45;30.81
35716;BME280;21840;44.920;8.616;2023-04-07T10:10:10;100302.03;;;21.32;31.07
35716;BME280;21840;44.920;8.616;2023-04-07T10:12:36;100303.06;;;21.45;30.98
35716;BME280;21840;44.920;8.616;2023-04-07T10:15:02;100303.22;;;21.70;30.72
35716;BME280;21840;44.920;8.616;2023-04-07T10:17:28;100297.50;;;21.53;31.16
35716;BME280;21840;44.920;8.616;2023-04-07T10:19:53;100306.28;;;21.87;30.88
35716;BME280;21840;44.920;8.616;2023-04-07T10:22:20;100293.59;;;21.49;31.39
35716;BME280;21840;44.920;8.616;2023-04-07T10:27:18;100286.81;;;21.46;31.41
35716;BME280;21840;44.920;8.616;2023-04-07T10:29:47;100290.91;;;21.62;31.62
35716;BME280;21840;44.920;8.616;2023-04-07T10:32:13;100276.91;;;22.18;30.86
35716;BME280;21840;44.920;8.616;2023-04-07T10:34:59;100280.16;;;22.34;30.51
35716;BME280;21840;44.920;8.616;2023-04-07T10:37:25;100282.00;;;22.40;30.79
35716;BME280;21840;44.920;8.616;2023-04-07T10:40:26;100271.56;;;22.18;30.86
35716;BME280;21840;44.920;8.616;2023-04-07T10:45:06;100268.09;;;22.11;30.87
35716;BME280;21840;44.920;8.616;2023-04-07T10:47:32;100272.63;;;21.52;32.35
35716;BME280;21840;44.920;8.616;2023-04-07T11:00:41;100276.66;;;19.52;37.71
35716;BME280;21840;44.920;8.616;2023-04-07T11:03:10;100278.03;;;19.70;38.16
35716;BME280;21840;44.920;8.616;2023-04-07T11:05:37;100270.56;;;19.02;39.41
35716;BME280;21840;44.920;8.616;2023-04-07T11:08:03;100279.00;;;18.69;40.45
35716;BME280;21840;44.920;8.616;2023-04-07T11:10:30;100289.13;;;18.38;42.03
35716;BME280;21840;44.920;8.616;2023-04-07T11:15:24;100293.50;;;18.45;42.71
35716;BME280;21840;44.920;8.616;2023-04-07T11:18:05;100283.44;;;18.41;42.79
35716;BME280;21840;44.920;8.616;2023-04-07T11:21:05;100301.03;;;18.05;43.60
35716;BME280;21840;44.920;8.616;2023-04-07T11:23:23;100299.34;;;18.19;43.56
35716;BME280;21840;44.920;8.616;2023-04-07T11:26:01;100314.22;;;17.99;44.45
35716;BME280;21840;44.920;8.616;2023-04-07T11:28:27;100314.41;;;17.82;45.16
35716;BME280;21840;44.920;8.616;2023-04-07T11:30:53;100312.38;;;17.99;45.39
35716;BME280;21840;44.920;8.616;2023-04-07T11:33:25;100307.34;;;17.89;45.64
35716;BME280;21840;44.920;8.616;2023-04-07T11:35:52;100313.47;;;17.75;46.51
35716;BME280;21840;44.920;8.616;2023-04-07T11:38:19;100319.59;;;17.76;46.52
35716;BME280;21840;44.920;8.616;2023-04-07T11:40:45;100321.19;;;17.85;46.76
35716;BME280;21840;44.920;8.616;2023-04-07T11:43:14;100324.03;;;17.83;46.68
35716;BME280;21840;44.920;8.616;2023-04-07T11:45:40;100329.13;;;17.32;48.24
35716;BME280;21840;44.920;8.616;2023-04-07T11:48:25;100337.75;;;17.87;47.16
35716;BME280;21840;44.920;8.616;2023-04-07T11:50:50;100341.91;;;17.52;47.94
35716;BME280;21840;44.920;8.616;2023-04-07T11:53:25;100338.50;;;17.43;48.23
35716;BME280;21840;44.920;8.616;2023-04-07T11:55:58;100336.78;;;17.50;47.88
35716;BME280;21840;44.920;8.616;2023-04-07T11:58:23;100331.00;;;17.09;48.63
35716;BME280;21840;44.920;8.616;2023-04-07T12:00:52;100331.41;;;17.58;47.62
35716;BME280;21840;44.920;8.616;2023-04-07T12:03:18;100333.00;;;17.44;48.26
35716;BME280;21840;44.920;8.616;2023-04-07T12:05:43;100328.28;;;17.17;48.49
35716;BME280;21840;44.920;8.616;2023-04-07T12:08:09;100333.56;;;17.40;48.53
35716;BME280;21840;44.920;8.616;2023-04-07T12:10:34;100324.97;;;17.38;48.13
35716;BME280;21840;44.920;8.616;2023-04-07T12:13:00;100322.47;;;17.36;48.23
35716;BME280;21840;44.920;8.616;2023-04-07T12:15:26;100321.41;;;17.45;48.12
35716;BME280;21840;44.920;8.616;2023-04-07T12:17:51;100309.84;;;17.38;48.30
35716;BME280;21840;44.920;8.616;2023-04-07T12:20:17;100287.41;;;16.88;48.57
35716;BME280;21840;44.920;8.616;2023-04-07T12:22:42;100295.03;;;16.60;49.17
35716;BME280;21840;44.920;8.616;2023-04-07T12:25:08;100291.81;;;16.65;48.83
35716;BME280;21840;44.920;8.616;2023-04-07T12:27:33;100282.00;;;16.50;49.20
35716;BME280;21840;44.920;8.616;2023-04-07T12:29:58;100292.34;;;16.37;49.63
35716;BME280;21840;44.920;8.616;2023-04-07T12:32:24;100299.25;;;16.46;49.57
35716;BME280;21840;44.920;8.616;2023-04-07T12:34:49;100297.00;;;16.35;49.91
35716;BME280;21840;44.920;8.616;2023-04-07T12:37:15;100305.94;;;16.34;49.98
35716;BME280;21840;44.920;8.616;2023-04-07T12:39:41;100303.50;;;16.55;49.46
35716;BME280;21840;44.920;8.616;2023-04-07T12:42:06;100299.59;;;16.43;49.75
35716;BME280;21840;44.920;8.616;2023-04-07T12:44:35;100301.25;;;16.44;49.63
35716;BME280;21840;44.920;8.616;2023-04-07T12:47:01;100302.09;;;16.68;49.28
35716;BME280;21840;44.920;8.616;2023-04-07T12:49:26;100290.13;;;16.49;49.54
35716;BME280;21840;44.920;8.616;2023-04-07T12:51:51;100296.31;;;16.64;49.20
35716;BME280;21840;44.920;8.616;2023-04-07T12:54:17;100298.72;;;15.72;50.70
35716;BME280;21840;44.920;8.616;2023-04-07T12:56:42;100295.34;;;15.94;50.64
35716;BME280;21840;44.920;8.616;2023-04-07T12:59:08;100285.53;;;15.47;50.95
35716;BME280;21840;44.920;8.616;2023-04-07T13:01:33;100295.22;;;15.80;50.22
35716;BME280;21840;44.920;8.616;2023-04-07T13:04:01;100292.22;;;15.91;50.00
35716;BME280;21840;44.920;8.616;2023-04-07T13:06:27;100285.97;;;15.84;49.33
35716;BME280;21840;44.920;8.616;2023-04-07T13:08:52;100292.78;;;15.62;49.60
35716;BME280;21840;44.920;8.616;2023-04-07T13:11:18;100294.69;;;15.92;49.05
35716;BME280;21840;44.920;8.616;2023-04-07T13:13:43;100294.91;;;15.83;49.37
35716;BME280;21840;44.920;8.616;2023-04-07T13:16:08;100287.84;;;16.06;48.96